createdAt,value
2023-01-09T00:00:38.145Z,98591.23
2023-01-09T00:03:30.353Z,98590.71
2023-01-09T00:06:02.773Z,98588.44
2023-01-09T00:08:38.265Z,98591.44
2023-01-09T00:11:10.975Z,98589.20
2023-01-09T00:13:43.319Z,98587.67
2023-01-09T00:16:16.536Z,98582.96
2023-01-09T00:18:49.337Z,98581.82
2023-01-09T00:21:22.187Z,98588.53
2023-01-09T00:23:56.278Z,98584.54
2023-01-09T00:26:28.459Z,98577.20
2023-01-09T00:29:02.393Z,98577.92
2023-01-09T00:31:34.612Z,98575.64
2023-01-09T00:34:10.581Z,98571.26
2023-01-09T00:36:42.926Z,98566.90
2023-01-09T00:39:16.459Z,98573.27
2023-01-09T00:41:52.896Z,98577.55
2023-01-09T00:44:30.602Z,98585.64
2023-01-09T00:47:11.047Z,98591.63
2023-01-09T00:49:47.519Z,98589.46
2023-01-09T00:52:20.456Z,98588.30
2023-01-09T00:54:53.243Z,98587.01
2023-01-09T00:57:25.843Z,98589.47
2023-01-09T00:59:56.331Z,98599.92
2023-01-09T01:02:29.090Z,98610.59
2023-01-09T01:05:29.883Z,98607.46
2023-01-09T01:08:02.193Z,98595.09
2023-01-09T01:10:32.793Z,98580.83
2023-01-09T01:13:05.281Z,98574.46
2023-01-09T01:15:35.934Z,98580.09
2023-01-09T01:18:08.132Z,98581.97
2023-01-09T01:20:45.394Z,98574.05
2023-01-09T01:23:17.484Z,98561.42
2023-01-09T01:25:49.249Z,98559.13
2023-01-09T01:28:21.282Z,98561.63
2023-01-09T01:30:52.201Z,98568.42
2023-01-09T01:33:24.260Z,98570.70
2023-01-09T01:36:04.616Z,98571.77
2023-01-09T01:38:37.213Z,98575.45
2023-01-09T01:41:10.098Z,98578.08
2023-01-09T01:43:56.750Z,98578.10
2023-01-09T01:46:29.272Z,98569.18
2023-01-09T01:49:07.769Z,98559.38
2023-01-09T01:51:43.919Z,98552.58
2023-01-09T01:54:22.557Z,98553.89
2023-01-09T01:56:59.784Z,98557.77
2023-01-09T01:59:38.336Z,98560.00
2023-01-09T02:02:11.827Z,98544.39
2023-01-09T02:04:44.019Z,98535.63
2023-01-09T02:07:16.769Z,98530.39
2023-01-09T02:09:52.971Z,98525.92
2023-01-09T02:12:27.175Z,98521.23
2023-01-09T02:15:03.855Z,98516.59
2023-01-09T02:18:07.071Z,98517.44
2023-01-09T02:20:45.683Z,98521.80
2023-01-09T02:24:01.778Z,98519.34
2023-01-09T02:26:55.959Z,98518.98
2023-01-09T02:30:11.482Z,98508.14
2023-01-09T02:33:20.026Z,98503.41
2023-01-09T02:36:06.099Z,98506.58
2023-01-09T02:38:46.110Z,98508.13
2023-01-09T02:41:22.775Z,98501.73
2023-01-09T02:44:16.004Z,98488.95
2023-01-09T02:46:48.484Z,98478.34
2023-01-09T02:49:20.870Z,98469.30
2023-01-09T02:52:01.922Z,98464.69
2023-01-09T02:54:50.627Z,98464.97
2023-01-09T02:57:39.967Z,98459.54
2023-01-09T03:00:25.239Z,98457.27
2023-01-09T03:03:07.491Z,98451.97
2023-01-09T03:05:46.197Z,98450.23
2023-01-09T03:08:23.134Z,98448.73
2023-01-09T03:11:00.546Z,98451.52
2023-01-09T03:13:36.990Z,98445.39
2023-01-09T03:16:12.524Z,98432.09
2023-01-09T03:18:46.504Z,98431.30
2023-01-09T03:21:19.879Z,98430.50
2023-01-09T03:23:55.041Z,98424.52
2023-01-09T03:26:29.253Z,98424.17
2023-01-09T03:29:02.466Z,98425.83
2023-01-09T03:31:34.651Z,98428.41
2023-01-09T03:34:07.132Z,98431.73
2023-01-09T03:36:37.520Z,98419.48
2023-01-09T03:39:10.679Z,98412.16
2023-01-09T03:41:42.964Z,98407.66
2023-01-09T03:44:15.276Z,98404.52
2023-01-09T03:46:48.042Z,98400.91
2023-01-09T03:49:23.171Z,98397.70
2023-01-09T03:51:58.229Z,98390.79
2023-01-09T03:54:30.691Z,98385.27
2023-01-09T03:57:03.159Z,98384.41
2023-01-09T03:59:35.650Z,98383.86
2023-01-09T04:02:08.980Z,98378.45
2023-01-09T04:04:41.756Z,98383.29
2023-01-09T04:07:13.943Z,98375.61
2023-01-09T04:09:44.551Z,98373.50
2023-01-09T04:12:16.814Z,98376.60
2023-01-09T04:14:49.003Z,98372.77
2023-01-09T04:17:21.529Z,98369.52
2023-01-09T04:19:53.845Z,98363.68
2023-01-09T04:22:26.416Z,98364.52
2023-01-09T04:24:58.939Z,98358.58
2023-01-09T04:27:31.514Z,98353.25
2023-01-09T04:30:04.036Z,98354.92
2023-01-09T04:32:36.574Z,98354.11
2023-01-09T04:35:09.095Z,98358.51
2023-01-09T04:37:41.378Z,98358.80
2023-01-09T04:40:14.159Z,98357.50
2023-01-09T04:42:46.632Z,98355.17
2023-01-09T04:45:21.599Z,98354.67
2023-01-09T04:47:53.774Z,98352.89
2023-01-09T04:50:25.834Z,98353.42
2023-01-09T04:52:56.893Z,98351.71
2023-01-09T04:55:29.060Z,98353.58
2023-01-09T04:57:59.744Z,98348.69
2023-01-09T05:00:32.184Z,98344.79
2023-01-09T05:03:04.649Z,98343.59
2023-01-09T05:05:37.076Z,98337.42
2023-01-09T05:08:07.947Z,98330.13
2023-01-09T05:10:40.185Z,98328.11
2023-01-09T05:13:12.687Z,98326.72
2023-01-09T05:15:44.896Z,98326.95
2023-01-09T05:18:15.549Z,98323.42
2023-01-09T05:20:47.719Z,98319.89
2023-01-09T05:23:18.449Z,98320.78
2023-01-09T05:25:50.625Z,98315.95
2023-01-09T05:28:21.243Z,98317.23
2023-01-09T05:30:53.631Z,98317.27
2023-01-09T05:33:24.679Z,98313.51
2023-01-09T05:35:57.006Z,98308.16
2023-01-09T05:38:29.250Z,98307.78
2023-01-09T05:40:59.749Z,98304.30
2023-01-09T05:43:31.930Z,98304.16
2023-01-09T05:46:02.572Z,98298.73
2023-01-09T05:48:35.005Z,98299.98
2023-01-09T05:51:07.535Z,98295.89
2023-01-09T05:53:39.764Z,98295.02
2023-01-09T05:56:11.772Z,98294.30
2023-01-09T05:58:44.186Z,98292.71
2023-01-09T06:01:16.656Z,98292.38
2023-01-09T06:03:48.803Z,98291.38
2023-01-09T06:06:22.535Z,98288.90
2023-01-09T06:08:54.732Z,98282.98
2023-01-09T06:11:26.924Z,98275.63
2023-01-09T06:13:59.278Z,98276.91
2023-01-09T06:16:29.776Z,98272.97
2023-01-09T06:19:02.033Z,98269.68
2023-01-09T06:21:34.463Z,98265.02
2023-01-09T06:24:10.888Z,98261.41
2023-01-09T06:26:43.064Z,98259.27
2023-01-09T06:29:17.650Z,98257.11
2023-01-09T06:31:49.967Z,98253.87
2023-01-09T06:34:22.099Z,98250.77
2023-01-09T06:36:52.853Z,98243.75
2023-01-09T06:39:25.079Z,98241.15
2023-01-09T06:41:57.151Z,98234.98
2023-01-09T06:44:27.772Z,98240.42
2023-01-09T06:47:00.119Z,98235.80
2023-01-09T06:49:33.704Z,98238.67
2023-01-09T06:52:07.754Z,98239.20
2023-01-09T06:54:40.099Z,98236.90
2023-01-09T06:57:14.708Z,98234.83
2023-01-09T06:59:47.250Z,98241.34
2023-01-09T07:02:22.360Z,98236.80
2023-01-09T07:04:57.143Z,98233.00
2023-01-09T07:07:29.482Z,98231.85
2023-01-09T07:10:01.543Z,98229.52
2023-01-09T07:12:34.254Z,98231.84
2023-01-09T07:15:07.560Z,98228.07
2023-01-09T07:17:39.935Z,98230.27
2023-01-09T07:20:14.126Z,98227.52
2023-01-09T07:22:46.646Z,98226.98
2023-01-09T07:25:19.093Z,98227.98
2023-01-09T07:27:51.305Z,98230.70
2023-01-09T07:30:23.683Z,98228.52
2023-01-09T07:32:56.150Z,98233.12
2023-01-09T07:35:28.770Z,98231.83
2023-01-09T07:38:04.114Z,98231.78
2023-01-09T07:40:36.672Z,98229.72
2023-01-09T07:43:08.960Z,98227.52
2023-01-09T07:45:41.228Z,98229.90
2023-01-09T07:48:13.474Z,98234.88
2023-01-09T07:50:44.166Z,98234.96
2023-01-09T07:53:16.449Z,98231.17
2023-01-09T07:55:48.672Z,98236.98
2023-01-09T07:58:21.247Z,98232.38
2023-01-09T08:00:54.211Z,98228.34
2023-01-09T08:03:26.954Z,98230.87
2023-01-09T08:05:59.496Z,98233.89
2023-01-09T08:08:30.183Z,98229.69
2023-01-09T08:11:02.394Z,98234.86
2023-01-09T08:13:34.583Z,98236.17
2023-01-09T08:16:07.506Z,98234.30
2023-01-09T08:19:03.671Z,98231.38
2023-01-09T08:21:36.015Z,98229.94
2023-01-09T08:24:07.086Z,98227.58
2023-01-09T08:26:39.392Z,98225.31
2023-01-09T08:29:11.733Z,98225.68
2023-01-09T08:31:42.295Z,98227.09
2023-01-09T08:34:14.434Z,98227.44
2023-01-09T08:36:45.110Z,98231.53
2023-01-09T08:39:17.264Z,98230.95
2023-01-09T08:42:05.358Z,98231.39
2023-01-09T08:44:54.098Z,98230.66
2023-01-09T08:47:28.771Z,98229.77
2023-01-09T08:50:04.476Z,98232.04
2023-01-09T08:52:37.174Z,98235.92
2023-01-09T08:55:09.358Z,98238.08
2023-01-09T08:57:48.391Z,98244.80
2023-01-09T09:00:23.751Z,98250.58
2023-01-09T09:03:17.452Z,98253.74
2023-01-09T09:05:52.222Z,98250.86
2023-01-09T09:08:26.227Z,98251.19
2023-01-09T09:11:01.344Z,98251.84
2023-01-09T09:13:33.596Z,98252.88
2023-01-09T09:16:04.301Z,98252.41
2023-01-09T09:18:36.542Z,98255.03
2023-01-09T09:21:07.212Z,98254.56
2023-01-09T09:23:39.524Z,98253.98
2023-01-09T09:26:10.160Z,98242.08
2023-01-09T09:28:42.577Z,98244.30
2023-01-09T09:31:15.010Z,98238.45
2023-01-09T09:33:45.641Z,98239.08
2023-01-09T09:36:18.799Z,98234.60
2023-01-09T09:38:50.884Z,98233.66
2023-01-09T09:41:49.865Z,98225.41
2023-01-09T09:44:53.316Z,98229.80
2023-01-09T09:47:41.821Z,98230.34
2023-01-09T09:50:27.548Z,98228.70
2023-01-09T09:53:07.212Z,98225.36
2023-01-09T09:55:41.638Z,98227.42
2023-01-09T09:58:22.362Z,98227.04
2023-01-09T10:00:55.465Z,98228.23
2023-01-09T10:03:34.543Z,98225.58
2023-01-09T10:06:12.761Z,98222.83
2023-01-09T10:08:51.015Z,98222.09
2023-01-09T10:11:28.055Z,98225.16
2023-01-09T10:14:10.429Z,98228.42
2023-01-09T10:17:07.147Z,98224.55
2023-01-09T10:19:54.695Z,98227.34
2023-01-09T10:22:39.419Z,98228.66
2023-01-09T10:25:24.049Z,98226.64
2023-01-09T10:28:15.399Z,98228.34
2023-01-09T10:30:51.422Z,98226.98
2023-01-09T10:33:39.120Z,98225.20
2023-01-09T10:36:46.887Z,98226.39
2023-01-09T10:39:22.872Z,98225.84
2023-01-09T10:41:59.529Z,98222.33
2023-01-09T10:44:37.511Z,98215.06
2023-01-09T10:47:17.447Z,98214.48
2023-01-09T10:49:51.015Z,98213.88
2023-01-09T10:52:31.282Z,98213.95
2023-01-09T10:55:19.298Z,98211.69
2023-01-09T10:57:55.701Z,98210.30
2023-01-09T11:00:28.742Z,98210.53
2023-01-09T11:03:00.830Z,98208.84
2023-01-09T11:05:34.162Z,98205.77
2023-01-09T11:08:14.979Z,98205.52
2023-01-09T11:10:53.038Z,98208.08
2023-01-09T11:13:27.211Z,98206.71
2023-01-09T11:16:09.315Z,98205.42
2023-01-09T11:18:50.037Z,98201.83
2023-01-09T11:21:33.351Z,98201.33
2023-01-09T11:24:29.702Z,98201.29
2023-01-09T11:27:25.146Z,98202.84
2023-01-09T11:30:21.187Z,98201.09
2023-01-09T11:32:54.308Z,98198.34
2023-01-09T11:35:34.752Z,98198.59
2023-01-09T11:38:16.992Z,98198.30
2023-01-09T11:40:53.053Z,98200.63
2023-01-09T11:43:32.928Z,98196.80
2023-01-09T11:46:08.966Z,98199.02
2023-01-09T11:48:54.230Z,98198.14
2023-01-09T11:51:28.286Z,98195.02
2023-01-09T11:54:13.959Z,98197.23
2023-01-09T11:56:46.943Z,98200.49
2023-01-09T11:59:22.070Z,98201.08
2023-01-09T12:02:24.331Z,98201.02
2023-01-09T12:05:01.174Z,98205.68
2023-01-09T12:08:09.549Z,98203.44
2023-01-09T12:10:54.717Z,98202.63
2023-01-09T12:13:43.883Z,98206.44
2023-01-09T12:16:28.011Z,98205.73
2023-01-09T12:19:14.138Z,98205.12
2023-01-09T12:21:53.977Z,98207.36
2023-01-09T12:24:42.547Z,98207.55
2023-01-09T12:27:26.848Z,98209.75
2023-01-09T12:30:16.442Z,98206.86
2023-01-09T12:33:00.673Z,98201.14
2023-01-09T12:35:41.441Z,98200.92
2023-01-09T12:38:39.734Z,98200.75
2023-01-09T12:41:42.699Z,98198.81
2023-01-09T12:44:35.926Z,98203.55
2023-01-09T12:47:25.249Z,98206.91
2023-01-09T12:50:10.667Z,98214.06
2023-01-09T12:52:48.415Z,98222.10
2023-01-09T12:55:24.536Z,98221.08
2023-01-09T12:58:01.355Z,98220.59
2023-01-09T13:00:38.884Z,98221.54
2023-01-09T13:03:18.875Z,98223.91
2023-01-09T13:05:53.788Z,98225.81
2023-01-09T13:08:32.564Z,98227.52
2023-01-09T13:11:25.757Z,98221.59
2023-01-09T13:14:03.297Z,98221.92
2023-01-09T13:16:46.088Z,98226.19
2023-01-09T13:19:23.837Z,98228.36
2023-01-09T13:21:57.547Z,98224.41
2023-01-09T13:24:38.545Z,98230.06
2023-01-09T13:27:15.817Z,98236.92
2023-01-09T13:29:52.374Z,98244.62
2023-01-09T13:32:41.271Z,98255.20
2023-01-09T13:35:18.647Z,98263.52
2023-01-09T13:37:56.356Z,98270.83
2023-01-09T13:40:34.804Z,98270.95
2023-01-09T13:43:27.216Z,98283.52
2023-01-09T13:45:57.949Z,98285.63
2023-01-09T13:48:41.686Z,98289.04
2023-01-09T13:52:00.078Z,98286.63
2023-01-09T13:55:18.132Z,98287.94
2023-01-09T13:58:26.291Z,98304.98
2023-01-09T14:01:02.747Z,98312.50
2023-01-09T14:03:37.753Z,98318.84
2023-01-09T14:06:19.217Z,98323.83
2023-01-09T14:09:09.225Z,98326.81
2023-01-09T14:11:41.732Z,98333.89
2023-01-09T14:14:30.284Z,98340.09
2023-01-09T14:17:16.454Z,98346.45
2023-01-09T14:19:55.205Z,98357.92
2023-01-09T14:22:30.598Z,98366.33
2023-01-09T14:25:11.256Z,98372.58
2023-01-09T14:28:20.153Z,98375.59
2023-01-09T14:31:27.676Z,98379.02
2023-01-09T14:34:32.490Z,98384.02
2023-01-09T14:37:05.747Z,98380.77
2023-01-09T14:39:42.581Z,98387.30
2023-01-09T14:42:19.523Z,98386.92
2023-01-09T14:44:58.803Z,98382.23
2023-01-09T14:47:45.507Z,98379.23
2023-01-09T14:50:26.869Z,98380.91
2023-01-09T14:53:05.692Z,98390.70
2023-01-09T14:55:50.738Z,98390.02
2023-01-09T14:58:25.684Z,98401.27
2023-01-09T15:01:05.961Z,98406.15
2023-01-09T15:03:43.395Z,98401.48
2023-01-09T15:06:20.876Z,98402.63
2023-01-09T15:09:01.836Z,98407.15
2023-01-09T15:11:38.583Z,98415.09
2023-01-09T15:14:32.178Z,98422.15
2023-01-09T15:17:05.291Z,98424.02
2023-01-09T15:19:37.772Z,98425.84
2023-01-09T15:22:24.878Z,98425.73
2023-01-09T15:24:57.813Z,98425.44
2023-01-09T15:27:30.455Z,98425.16
2023-01-09T15:30:19.291Z,98430.86
2023-01-09T15:32:53.545Z,98434.71
2023-01-09T15:35:30.611Z,98432.31
2023-01-09T15:38:02.907Z,98432.69
2023-01-09T15:40:36.440Z,98433.52
2023-01-09T15:43:14.712Z,98434.63
2023-01-09T15:45:49.579Z,98442.31
2023-01-09T15:48:30.793Z,98450.98
2023-01-09T15:51:06.934Z,98463.06
2023-01-09T15:53:41.519Z,98471.09
2023-01-09T15:56:24.040Z,98469.80
2023-01-09T15:58:57.305Z,98471.31
2023-01-09T16:01:32.344Z,98478.98
2023-01-09T16:04:16.884Z,98474.27
2023-01-09T16:06:52.300Z,98471.29
2023-01-09T16:09:28.194Z,98473.39
2023-01-09T16:12:03.661Z,98477.63
2023-01-09T16:14:38.552Z,98479.40
2023-01-09T16:17:16.909Z,98479.40
2023-01-09T16:19:52.010Z,98488.00
2023-01-09T16:22:26.236Z,98487.80
2023-01-09T16:25:04.115Z,98488.47
2023-01-09T16:27:36.733Z,98488.84
2023-01-09T16:30:26.501Z,98493.02
2023-01-09T16:32:58.996Z,98493.38
2023-01-09T16:35:31.314Z,98493.85
2023-01-09T16:38:03.611Z,98490.75
2023-01-09T16:40:37.806Z,98493.66
2023-01-09T16:43:15.666Z,98497.58
2023-01-09T16:45:48.250Z,98509.12
2023-01-09T16:48:21.377Z,98515.40
2023-01-09T16:50:53.697Z,98524.48
2023-01-09T16:53:28.520Z,98535.77
2023-01-09T16:56:01.199Z,98537.36
2023-01-09T16:58:37.410Z,98538.20
2023-01-09T17:01:15.523Z,98545.20
2023-01-09T17:03:48.970Z,98552.05
2023-01-09T17:06:25.774Z,98555.07
2023-01-09T17:08:58.469Z,98549.19
2023-01-09T17:11:31.998Z,98550.40
2023-01-09T17:14:05.041Z,98553.44
2023-01-09T17:16:46.815Z,98554.75
2023-01-09T17:19:27.080Z,98553.90
2023-01-09T17:21:59.377Z,98556.44
2023-01-09T17:24:49.058Z,98561.90
2023-01-09T17:27:59.170Z,98562.92
2023-01-09T17:30:32.574Z,98567.62
2023-01-09T17:33:05.515Z,98567.34
2023-01-09T17:35:38.680Z,98567.85
2023-01-09T17:38:13.643Z,98569.21
2023-01-09T17:40:47.427Z,98567.63
2023-01-09T17:43:20.223Z,98570.10
2023-01-09T17:45:52.644Z,98576.72
2023-01-09T17:48:25.425Z,98581.05
2023-01-09T17:50:57.644Z,98582.08
2023-01-09T17:53:30.128Z,98590.13
2023-01-09T17:56:03.215Z,98591.33
2023-01-09T17:58:35.534Z,98592.58
2023-01-09T18:01:07.943Z,98594.70
2023-01-09T18:03:40.252Z,98596.58
2023-01-09T18:06:15.217Z,98597.52
2023-01-09T18:08:48.030Z,98600.38
2023-01-09T18:11:22.780Z,98602.14
2023-01-09T18:13:55.214Z,98600.87
2023-01-09T18:16:29.106Z,98606.33
2023-01-09T18:19:02.127Z,98608.90
2023-01-09T18:21:34.466Z,98605.31
2023-01-09T18:24:08.434Z,98607.55
2023-01-09T18:26:40.600Z,98611.61
2023-01-09T18:29:11.608Z,98614.33
2023-01-09T18:31:47.243Z,98618.35
2023-01-09T18:34:19.590Z,98622.50
2023-01-09T18:36:52.296Z,98623.42
2023-01-09T18:39:24.798Z,98619.83
2023-01-09T18:41:57.755Z,98622.02
2023-01-09T18:44:30.308Z,98618.03
2023-01-09T18:49:49.186Z,98621.73
2023-01-09T18:52:21.640Z,98627.36
2023-01-09T18:54:54.454Z,98630.20
2023-01-09T18:57:30.641Z,98634.09
2023-01-09T19:00:05.748Z,98638.66
2023-01-09T19:02:39.053Z,98645.43
2023-01-09T19:05:13.238Z,98647.59
2023-01-09T19:07:45.863Z,98648.83
2023-01-09T19:10:19.217Z,98652.25
2023-01-09T19:12:52.041Z,98652.68
2023-01-09T19:15:24.262Z,98661.98
2023-01-09T19:17:57.198Z,98661.86
2023-01-09T19:20:30.491Z,98665.46
2023-01-09T19:23:03.480Z,98671.27
2023-01-09T19:25:36.355Z,98669.13
2023-01-09T19:28:09.208Z,98670.59
2023-01-09T19:30:42.011Z,98674.98
2023-01-09T19:33:15.442Z,98677.64
2023-01-09T19:35:51.853Z,98678.82
2023-01-09T19:38:25.007Z,98676.65
2023-01-09T19:40:57.035Z,98672.44
2023-01-09T19:43:29.475Z,98672.33
2023-01-09T19:46:02.036Z,98673.86
2023-01-09T19:48:34.450Z,98673.95
2023-01-09T19:51:08.999Z,98680.05
2023-01-09T19:53:41.919Z,98681.19
2023-01-09T19:56:16.033Z,98678.81
2023-01-09T19:58:52.245Z,98680.02
2023-01-09T20:01:26.799Z,98680.05
2023-01-09T20:04:02.961Z,98681.78
2023-01-09T20:06:35.720Z,98679.42
2023-01-09T20:09:08.381Z,98681.87
2023-01-09T20:11:41.788Z,98683.00
2023-01-09T20:14:15.514Z,98685.34
2023-01-09T20:16:54.102Z,98688.49
2023-01-09T20:19:36.011Z,98695.56
2023-01-09T20:22:08.424Z,98698.45
2023-01-09T20:24:43.396Z,98702.14
2023-01-09T20:27:15.740Z,98708.92
2023-01-09T20:29:48.380Z,98715.16
2023-01-09T20:32:20.677Z,98716.94
2023-01-09T20:34:53.011Z,98716.59
2023-01-09T20:37:26.011Z,98715.08
2023-01-09T20:40:01.738Z,98716.66
2023-01-09T20:42:34.150Z,98718.08
2023-01-09T20:45:07.906Z,98719.67
2023-01-09T20:47:40.439Z,98722.08
2023-01-09T20:50:14.397Z,98728.71
2023-01-09T20:52:47.016Z,98731.70
2023-01-09T20:55:19.554Z,98734.40
2023-01-09T20:57:51.828Z,98737.31
2023-01-09T21:00:25.169Z,98739.30
2023-01-09T21:02:57.712Z,98738.70
2023-01-09T21:05:30.376Z,98738.33
2023-01-09T21:08:02.638Z,98738.84
2023-01-09T21:10:35.136Z,98741.02
2023-01-09T21:13:07.432Z,98743.89
2023-01-09T21:15:39.908Z,98742.50
2023-01-09T21:18:10.343Z,98745.39
2023-01-09T21:20:42.726Z,98743.00
2023-01-09T21:23:15.033Z,98750.55
2023-01-09T21:25:48.960Z,98754.73
2023-01-09T21:28:23.138Z,98766.11
2023-01-09T21:30:55.455Z,98771.77
2023-01-09T21:33:27.564Z,98774.89
2023-01-09T21:35:58.922Z,98778.45
2023-01-09T21:38:30.978Z,98780.68
2023-01-09T21:41:22.056Z,98782.86
2023-01-09T21:44:11.218Z,98782.61
2023-01-09T21:46:52.694Z,98782.38
2023-01-09T21:49:26.364Z,98787.83
2023-01-09T21:51:58.764Z,98793.20
2023-01-09T21:54:31.340Z,98801.13
2023-01-09T21:57:04.178Z,98803.52
2023-01-09T21:59:36.360Z,98810.85
2023-01-09T22:02:07.069Z,98809.33
2023-01-09T22:04:39.683Z,98812.48
2023-01-09T22:07:12.220Z,98813.34
2023-01-09T22:09:44.170Z,98820.28
2023-01-09T22:12:16.325Z,98823.83
2023-01-09T22:14:48.806Z,98822.89
2023-01-09T22:17:20.956Z,98826.11
2023-01-09T22:19:51.616Z,98824.15
2023-01-09T22:22:23.868Z,98824.59
2023-01-09T22:24:56.243Z,98824.13
2023-01-09T22:27:27.064Z,98826.70
2023-01-09T22:29:59.145Z,98825.33
2023-01-09T22:32:29.786Z,98828.08
2023-01-09T22:35:01.876Z,98826.08
2023-01-09T22:37:35.130Z,98825.76
2023-01-09T22:40:09.026Z,98832.05
2023-01-09T22:42:41.161Z,98831.96
2023-01-09T22:45:14.148Z,98836.44
2023-01-09T22:47:46.883Z,98842.38
2023-01-09T22:50:20.654Z,98839.02
2023-01-09T22:52:53.090Z,98838.95
2023-01-09T22:55:25.348Z,98837.02
2023-01-09T22:57:57.624Z,98840.52
2023-01-09T23:00:29.886Z,98841.13
2023-01-09T23:03:00.601Z,98843.64
2023-01-09T23:05:33.066Z,98842.71
2023-01-09T23:08:05.650Z,98847.35
2023-01-09T23:10:38.112Z,98848.42
2023-01-09T23:13:10.490Z,98851.09
2023-01-09T23:15:42.720Z,98854.38
2023-01-09T23:18:13.286Z,98850.38
2023-01-09T23:20:52.929Z,98854.59
2023-01-09T23:23:27.290Z,98851.76
2023-01-09T23:26:00.937Z,98857.23
2023-01-09T23:28:34.100Z,98860.25
2023-01-09T23:31:06.564Z,98860.95
2023-01-09T23:33:38.744Z,98855.63
2023-01-09T23:36:09.874Z,98863.89
2023-01-09T23:38:42.689Z,98866.39
2023-01-09T23:41:14.714Z,98865.81
2023-01-09T23:43:47.669Z,98866.53
2023-01-09T23:46:19.720Z,98869.02
2023-01-09T23:48:53.063Z,98870.04
2023-01-09T23:51:25.189Z,98869.36
2023-01-09T23:53:55.800Z,98877.02
2023-01-09T23:56:30.677Z,98879.69
2023-01-09T23:59:03.140Z,98881.23
